GMFF Airport Information

Runway Information
Runway 09 Length 10499 ft width 148 ft
Elevation 1854 ft Threshold 0 ft Heading 90
Runway 27 Length 10499 ft Width 148 ft
Elevation 1890 ft Threshold 820 ft Heading 270
Airport Frequencies
Type TWR Name TWR Frequency 118.6 MHZ
Airport Navaids
Type VOR-DME Name Saiss Frequency 115700 KHZ
Airport Weather Information & NOTAM
ADDS - METARS form results

(2007 UTC 21 March 2019)
Data provider http://aviationweather.gov/metar/data/
 
METAR text: GMFF 212000Z 06014KT 9999 FEW030 SCT100 12/01 Q1018 NOSIG
Conditions at: GMFF (FES-SAIS , MA) observed 2000 UTC 21 March 2019
Temperature: 12.0°C (54°F)
Dewpoint: 1.0°C (34°F) [RH = 47%]
Pressure (altimeter): 30.06 inches Hg (1018.0 mb)
Winds: from the ENE (60 degrees) at 16 MPH (14 knots; 7.2 m/s)
Visibility: 6 or more miles (10+ km)
Ceiling: at least 12,000 feet AGL
Clouds: few clouds at 3000 feet AGL
scattered clouds at 10000 feet AGL
Weather: no significant weather observed at this time

METAR text: GMFF 211930Z 06014KT 9999 FEW030 SCT100 13/00 Q1018 NOSIG
Conditions at: GMFF (FES-SAIS , MA) observed 1930 UTC 21 March 2019
Temperature: 13.0°C (55°F)
Dewpoint: 0.0°C (32°F) [RH = 41%]
Pressure (altimeter): 30.06 inches Hg (1018.0 mb)
Winds: from the ENE (60 degrees) at 16 MPH (14 knots; 7.2 m/s)
Visibility: 6 or more miles (10+ km)
Ceiling: at least 12,000 feet AGL
Clouds: few clouds at 3000 feet AGL
scattered clouds at 10000 feet AGL
Weather: no significant weather observed at this time

Forecast for: GMFF (FES-SAIS , MA)
Text: TAF GMFF 211700Z 2118/2224 06021KT 9999 SCT030
Forecast period: 1800 UTC 21 March 2019 to 0400 UTC 22 March 2019
Forecast type: FROM: standard forecast or significant change
Winds: from the ENE (60 degrees) at 24 MPH (21 knots; 10.8 m/s)
Visibility: 6 or more miles 10+ km)
Ceiling: at least 12,000 feet AGL
Clouds: scattered clouds at 3000 feet AGL
Weather: no significant weather forecast for this period
Text: BECMG 2204/2208 06010KT BKN023 SCT100
Forecast period: 0400 to 1000 UTC 22 March 2019
Forecast type: BECOMING: Conditions expected to become as follows by 0800 UTC 22 March 2019
Winds: from the ENE (60 degrees) at 12 MPH (10 knots; 5.1 m/s)
Visibility: 6 or more miles 10+ km)
Ceiling: 2300 feet AGL
Clouds: broken clouds at 2300 feet AGL
scattered clouds at 10000 feet AGL
Weather: no significant weather forecast for this period
Text: BECMG 2210/2214 05013KT CAVOK
Forecast period: 1000 UTC 22 March 2019 to 0000 UTC 23 March 2019
Forecast type: BECOMING: Conditions expected to become as follows by 1400 UTC 22 March 2019
Winds: from the NE (50 degrees) at 15 MPH (13 knots; 6.7 m/s)
Visibility: 6 or more miles 10+ km)
Ceiling: unknown
Clouds: missing
Weather: NSW  (no significant weather)